Deerfield Beach, FL

12:08 AM EST on January 24, 2017 (GMT -0500)
Shorewood ,DEERFIELD Beach,Fl | | Change Station
Active Advisory: Small Craft Advisory Active Notice: Public Information Statement

Elev 20 ft 26.30 °N, 80.10 °W | Updated 33 seconds ago

Clear
Clear
63.9 °F
Feels Like 63.9 °F
N
2.0
Wind Variable Wind from South

Today
High -- | Low -- °F
--% Chance of Precip.
Yesterday
High -- | Low -- °F
Precip. -- in
Pressure 29.77 in
Visibility 8.0 miles
Clouds Clear
Dew Point 55 °F
Humidity 74%
Rainfall 0.00 in
Snow Depth Not available.
7:07 AM 5:57 PM
Waning Crescent, 14% visible
METAR KPMP 240453Z AUTO 30012KT 8SM CLR 18/14 A2977 RMK AO2 SLP080 T01830139 402610183
Pressure 29.77 in
Visibility 8.0 miles
Clouds Clear
Dew Point 55 °F
Humidity 74%
Rainfall 0.00 in
Snow Depth Not available.
7:07 AM 5:57 PM
Waning Crescent, 14% visible
METAR KPMP 240453Z AUTO 30012KT 8SM CLR 18/14 A2977 RMK AO2 SLP080 T01830139 402610183

Get Your Daily Forecast Email!

Thanks for signing up!

Be on the lookout for a verification email in your inbox.

You'll start receiving the daily forecast at 8 AM.

×

10-Day Weather Forecast

Almanac

Astronomy

Jan. 24, 2017 Rise Set
Actual Time
Civil Twilight
Nautical Twilight
Astronomical Twilight
Moon
Length of Visible Light
Length of Day
Tomorrow will be .
, % of the Moon is Illuminated

Today's Extremes

State Highs State Lows

Community

WunderPhotos

Upload Photos

1,962,540 photos uploaded!

WunderBlog® & News

Nearby

Air Quality

  Air Quality AQ Index Pollutant
Not available.

Snow Depth

Station Depth Elevation

Earthquake Activity

City Distance Mag. Time & Date
Minimum magnitude displayed is 2.5.

Coastal Water Temperatures

Place Temperature

Stations

Nearby Weather Stations

Station Location Temp. Windchill Dew Point Humidity Wind Precip. Elev Updated Type
                   

Watches & Warnings

Small Craft Advisory
Issued: 9:17 PM EST Jan. 23, 2017 – National Weather Service

... Small Craft Advisory now in effect until 7 PM EST Tuesday...
... Gale Warning is cancelled...

The National Weather Service in Miami has cancelled the Gale
Warning.

* Winds and seas... northwest winds 15 to 25 kt with gusts up to
30 kt. Seas 7 to 10 feet.

Precautionary/preparedness actions...

A Gale Warning means winds of 34 to 47 knots are imminent or
occurring. Operating a vessel in gale conditions requires
experience and properly equipped vessels. It is highly
recommended that mariners without the proper experience seek safe
Harbor prior to the onset of gale conditions.

A Small Craft Advisory means that wind speeds of 20 to 33 knots
are expected to produce hazardous wave conditions to small craft.
Inexperienced mariners... especially those operating smaller
vessels should avoid navigating in these conditions.